createdAt,value
2022-11-03T00:01:48.983Z,12.38
2022-11-03T00:04:19.307Z,12.13
2022-11-03T00:06:48.608Z,10.52
2022-11-03T00:09:17.733Z,8.85
2022-11-03T00:11:46.971Z,10.45
2022-11-03T00:14:15.553Z,12.85
2022-11-03T00:16:44.113Z,12.23
2022-11-03T00:19:13.624Z,10.95
2022-11-03T00:21:43.543Z,9.38
2022-11-03T00:24:12.107Z,14.18
2022-11-03T00:26:40.491Z,11.27
2022-11-03T00:29:09.957Z,11.73
2022-11-03T00:31:39.370Z,13.38
2022-11-03T00:34:08.309Z,9.38
2022-11-03T00:36:37.332Z,9.85
2022-11-03T00:39:07.423Z,9.80
2022-11-03T00:41:35.782Z,12.85
2022-11-03T00:44:04.208Z,9.85
2022-11-03T00:46:35.057Z,11.73
2022-11-03T00:49:03.787Z,10.07
2022-11-03T00:51:33.936Z,9.90
2022-11-03T00:54:03.066Z,10.05
2022-11-03T00:56:34.107Z,8.65
2022-11-03T00:59:03.279Z,7.95
2022-11-03T01:01:32.631Z,11.18
2022-11-03T01:04:18.649Z,10.18
2022-11-03T01:06:51.444Z,9.55
2022-11-03T01:09:19.891Z,10.57
2022-11-03T01:11:53.075Z,10.88
2022-11-03T01:14:21.990Z,10.95
2022-11-03T01:16:50.292Z,9.45
2022-11-03T01:19:18.673Z,10.15
2022-11-03T01:21:46.952Z,9.98
2022-11-03T01:24:15.314Z,11.82
2022-11-03T01:26:43.594Z,10.80
2022-11-03T01:29:13.237Z,12.55
2022-11-03T01:31:41.619Z,10.25
2022-11-03T01:34:11.598Z,12.80
2022-11-03T01:36:39.879Z,7.85
2022-11-03T01:39:08.166Z,10.30
2022-11-03T01:41:36.449Z,8.70
2022-11-03T01:44:23.595Z,8.85
2022-11-03T01:46:54.666Z,11.93
2022-11-03T01:49:27.006Z,8.27
2022-11-03T01:51:58.912Z,11.13
2022-11-03T01:54:28.971Z,8.30
2022-11-03T01:56:57.619Z,12.30
2022-11-03T01:59:26.414Z,11.48
2022-11-03T02:01:56.213Z,7.75
2022-11-03T02:04:27.720Z,13.10
2022-11-03T02:06:59.010Z,11.65
2022-11-03T02:09:27.515Z,8.82
2022-11-03T02:12:07.808Z,9.23
2022-11-03T02:14:36.925Z,8.30
2022-11-03T02:17:07.783Z,7.57
2022-11-03T02:19:39.417Z,9.55
2022-11-03T02:22:16.161Z,11.65
2022-11-03T02:24:52.976Z,11.80
2022-11-03T02:27:23.973Z,16.17
2022-11-03T02:29:52.381Z,9.93
2022-11-03T02:32:23.716Z,7.28
2022-11-03T02:34:59.293Z,9.00
2022-11-03T02:37:29.982Z,14.48
2022-11-03T02:40:00.095Z,10.35
2022-11-03T02:42:30.055Z,11.07
2022-11-03T02:49:04.737Z,5.95
2022-11-03T02:51:34.665Z,7.57
2022-11-03T02:54:05.738Z,8.68
2022-11-03T02:56:35.451Z,11.57
2022-11-03T02:59:08.490Z,8.57
2022-11-03T03:01:46.786Z,8.02
2022-11-03T03:04:19.036Z,8.20
2022-11-03T03:06:51.029Z,7.47
2022-11-03T03:09:20.819Z,11.02
2022-11-03T03:11:50.570Z,10.15
2022-11-03T03:14:21.826Z,10.10
2022-11-03T03:16:53.433Z,9.13
2022-11-03T03:19:30.647Z,11.15
2022-11-03T03:21:59.652Z,8.77
2022-11-03T03:24:32.896Z,9.73
2022-11-03T03:27:01.671Z,7.47
2022-11-03T03:29:33.327Z,10.13
2022-11-03T03:32:02.517Z,11.35
2022-11-03T03:34:35.139Z,9.45
2022-11-03T03:37:05.068Z,14.60
2022-11-03T03:39:35.597Z,8.45
2022-11-03T03:42:04.664Z,13.43
2022-11-03T03:44:35.001Z,9.85
2022-11-03T03:47:05.718Z,6.63
2022-11-03T03:49:34.008Z,8.15
2022-11-03T03:52:03.652Z,9.63
2022-11-03T03:54:31.951Z,11.73
2022-11-03T03:57:03.074Z,10.23
2022-11-03T03:59:31.482Z,13.77
2022-11-03T04:02:01.254Z,12.60
2022-11-03T04:04:29.702Z,6.40
2022-11-03T04:07:11.986Z,7.55
2022-11-03T04:09:40.277Z,10.50
2022-11-03T04:12:26.940Z,7.70
2022-11-03T04:15:12.992Z,8.05
2022-11-03T04:18:02.774Z,6.63
2022-11-03T04:20:48.931Z,11.18
2022-11-03T04:23:17.265Z,12.65
2022-11-03T04:25:47.674Z,7.15
2022-11-03T04:28:16.686Z,8.20
2022-11-03T04:30:45.096Z,7.68
2022-11-03T04:33:16.251Z,8.52
2022-11-03T04:35:45.217Z,8.57
2022-11-03T04:38:21.597Z,8.90
2022-11-03T04:40:53.716Z,8.40
2022-11-03T04:43:24.861Z,10.10
2022-11-03T04:45:53.169Z,11.43
2022-11-03T04:48:23.957Z,9.45
2022-11-03T04:50:55.201Z,8.68
2022-11-03T04:53:24.263Z,6.55
2022-11-03T04:55:54.654Z,8.07
2022-11-03T04:58:24.066Z,8.95
2022-11-03T05:00:53.512Z,10.75
2022-11-03T05:03:24.218Z,8.13
2022-11-03T05:05:52.647Z,11.30
2022-11-03T05:08:21.485Z,12.13
2022-11-03T05:10:50.873Z,8.80
2022-11-03T05:13:20.542Z,7.05
2022-11-03T05:15:49.634Z,8.18
2022-11-03T05:18:19.970Z,8.52
2022-11-03T05:20:51.610Z,9.65
2022-11-03T05:23:20.910Z,11.63
2022-11-03T05:25:51.111Z,9.40
2022-11-03T05:28:27.617Z,9.05
2022-11-03T05:30:56.993Z,9.48
2022-11-03T05:33:29.854Z,9.45
2022-11-03T05:36:02.315Z,11.00
2022-11-03T05:38:32.189Z,11.75
2022-11-03T05:41:00.518Z,12.30
2022-11-03T05:43:29.883Z,12.52
2022-11-03T05:46:00.036Z,13.55
2022-11-03T05:48:32.189Z,12.20
2022-11-03T05:51:02.272Z,11.77
2022-11-03T05:53:32.117Z,7.47
2022-11-03T05:56:05.456Z,12.73
2022-11-03T05:58:39.354Z,9.63
2022-11-03T06:01:17.855Z,13.93
2022-11-03T06:03:48.492Z,11.00
2022-11-03T06:06:31.806Z,10.68
2022-11-03T06:09:01.641Z,6.75
2022-11-03T06:11:33.370Z,10.00
2022-11-03T06:14:01.673Z,9.85
2022-11-03T06:16:39.672Z,7.90
2022-11-03T06:19:16.642Z,9.23
2022-11-03T06:21:46.753Z,8.35
2022-11-03T06:24:15.876Z,10.90
2022-11-03T06:26:45.194Z,12.10
2022-11-03T06:29:15.979Z,10.68
2022-11-03T06:31:45.468Z,9.68
2022-11-03T06:34:20.099Z,12.90
2022-11-03T06:36:49.772Z,10.88
2022-11-03T06:39:21.385Z,11.50
2022-11-03T06:41:49.705Z,9.05
2022-11-03T06:44:23.422Z,14.10
2022-11-03T06:46:51.716Z,10.35
2022-11-03T06:49:27.219Z,9.82
2022-11-03T06:51:56.942Z,11.55
2022-11-03T06:54:25.275Z,11.43
2022-11-03T06:56:53.579Z,10.35
2022-11-03T06:59:22.006Z,14.32
2022-11-03T07:01:52.566Z,13.73
2022-11-03T07:04:22.267Z,13.98
2022-11-03T07:06:53.524Z,9.52
2022-11-03T07:09:25.854Z,10.90
2022-11-03T07:11:55.090Z,11.88
2022-11-03T07:14:24.284Z,11.35
2022-11-03T07:16:54.803Z,10.25
2022-11-03T07:19:25.605Z,10.43
2022-11-03T07:21:55.553Z,10.02
2022-11-03T07:24:27.319Z,9.50
2022-11-03T07:26:59.719Z,10.27
2022-11-03T07:29:34.435Z,11.55
2022-11-03T07:32:06.056Z,10.40
2022-11-03T07:34:35.049Z,11.27
2022-11-03T07:37:03.548Z,12.45
2022-11-03T07:39:35.603Z,16.23
2022-11-03T07:42:04.707Z,16.63
2022-11-03T07:44:33.246Z,12.45
2022-11-03T07:47:01.531Z,11.98
2022-11-03T07:49:30.426Z,18.42
2022-11-03T07:52:00.742Z,12.13
2022-11-03T07:54:30.633Z,11.77
2022-11-03T07:57:01.443Z,12.10
2022-11-03T07:59:30.852Z,13.25
2022-11-03T08:02:03.411Z,13.60
2022-11-03T08:04:39.189Z,10.90
2022-11-03T08:07:10.034Z,10.80
2022-11-03T08:09:38.363Z,13.35
2022-11-03T08:12:08.385Z,10.90
2022-11-03T08:14:37.859Z,9.60
2022-11-03T08:17:06.365Z,9.30
2022-11-03T08:19:34.717Z,10.73
2022-11-03T08:22:03.018Z,9.85
2022-11-03T08:24:31.307Z,11.30
2022-11-03T08:26:59.609Z,9.57
2022-11-03T08:29:29.431Z,9.88
2022-11-03T08:31:58.020Z,9.07
2022-11-03T08:34:26.303Z,9.15
2022-11-03T08:36:54.594Z,9.68
2022-11-03T08:39:24.574Z,12.48
2022-11-03T08:41:53.216Z,7.30
2022-11-03T08:44:21.646Z,8.63
2022-11-03T08:46:51.319Z,8.68
2022-11-03T08:49:19.662Z,12.32
2022-11-03T08:51:47.982Z,10.55
2022-11-03T08:54:16.314Z,7.85
2022-11-03T08:56:46.347Z,11.00
2022-11-03T08:59:14.650Z,9.80
2022-11-03T09:01:48.761Z,7.78
2022-11-03T09:04:23.923Z,8.50
2022-11-03T09:06:52.597Z,6.85
2022-11-03T09:12:09.486Z,8.20
2022-11-03T09:18:07.876Z,5.93
2022-11-03T09:20:37.733Z,9.23
2022-11-03T09:23:06.072Z,7.18
2022-11-03T09:25:34.355Z,7.97
2022-11-03T09:28:02.650Z,7.07
2022-11-03T09:30:30.937Z,6.50
2022-11-03T09:32:59.416Z,8.48
2022-11-03T09:35:27.785Z,8.75
2022-11-03T09:37:57.543Z,6.97
2022-11-03T09:40:26.766Z,9.13
2022-11-03T09:42:55.095Z,6.40
2022-11-03T09:45:23.382Z,8.38
2022-11-03T09:47:51.727Z,10.77
2022-11-03T09:50:21.211Z,9.07
2022-11-03T09:52:51.928Z,9.77
2022-11-03T09:55:25.770Z,9.48
2022-11-03T09:57:54.524Z,9.68
2022-11-03T10:00:23.916Z,9.40
2022-11-03T10:02:52.446Z,8.98
2022-11-03T10:05:30.544Z,10.20
2022-11-03T10:08:00.291Z,6.93
2022-11-03T10:10:30.185Z,7.43
2022-11-03T10:12:58.700Z,6.47
2022-11-03T10:15:27.815Z,9.93
2022-11-03T10:17:57.027Z,9.80
2022-11-03T10:20:25.353Z,8.45
2022-11-03T10:22:54.792Z,8.98
2022-11-03T10:25:31.544Z,7.90
2022-11-03T10:28:14.854Z,12.13
2022-11-03T10:33:42.948Z,6.90
2022-11-03T10:36:24.400Z,6.05
2022-11-03T10:38:52.929Z,9.75
2022-11-03T10:41:23.426Z,10.55
2022-11-03T10:44:01.803Z,5.93
2022-11-03T10:46:51.599Z,9.43
2022-11-03T10:49:20.540Z,7.00
2022-11-03T10:51:50.407Z,8.02
2022-11-03T10:54:19.936Z,8.20
2022-11-03T10:56:50.824Z,9.52
2022-11-03T10:59:20.489Z,9.30
2022-11-03T11:01:55.808Z,7.18
2022-11-03T11:04:32.557Z,7.35
2022-11-03T11:07:04.164Z,9.07
2022-11-03T11:09:32.767Z,7.97
2022-11-03T11:12:04.304Z,8.88
2022-11-03T11:14:38.971Z,8.05
2022-11-03T11:17:07.529Z,6.97
2022-11-03T11:19:50.704Z,6.63
2022-11-03T11:22:23.830Z,7.70
2022-11-03T11:24:59.491Z,6.72
2022-11-03T11:27:46.629Z,6.95
2022-11-03T11:30:29.841Z,6.05
2022-11-03T11:33:02.504Z,9.15
2022-11-03T11:35:49.701Z,11.80
2022-11-03T11:38:36.698Z,18.92
2022-11-03T11:41:04.991Z,12.77
2022-11-03T11:43:33.246Z,6.15
2022-11-03T11:46:21.335Z,7.35
2022-11-03T11:48:52.913Z,6.82
2022-11-03T11:51:21.243Z,11.27
2022-11-03T11:54:09.983Z,6.60
2022-11-03T11:56:43.525Z,7.57
2022-11-03T11:59:22.952Z,7.20
2022-11-03T12:01:53.924Z,8.27
2022-11-03T12:04:28.109Z,8.20
2022-11-03T12:06:59.429Z,8.80
2022-11-03T12:09:29.514Z,5.15
2022-11-03T12:12:00.772Z,5.70
2022-11-03T12:14:37.269Z,4.90
2022-11-03T12:17:24.401Z,10.27
2022-11-03T12:19:54.732Z,5.03
2022-11-03T12:22:42.065Z,8.25
2022-11-03T12:25:25.259Z,8.75
2022-11-03T12:27:53.570Z,9.57
2022-11-03T12:30:22.758Z,8.68
2022-11-03T12:32:51.971Z,6.78
2022-11-03T12:35:21.632Z,9.20
2022-11-03T12:37:50.042Z,8.52
2022-11-03T12:40:18.546Z,10.32
2022-11-03T12:42:46.878Z,22.13
2022-11-03T12:45:15.231Z,26.27
2022-11-03T12:47:43.547Z,11.43
2022-11-03T12:50:11.864Z,8.00
2022-11-03T12:52:41.545Z,6.72
2022-11-03T12:55:10.176Z,7.93
2022-11-03T12:57:38.474Z,7.57
2022-11-03T13:00:07.368Z,5.50
2022-11-03T13:02:38.166Z,7.32
2022-11-03T13:05:07.691Z,7.60
2022-11-03T13:07:36.055Z,5.35
2022-11-03T13:10:05.884Z,5.93
2022-11-03T13:12:33.751Z,7.97
2022-11-03T13:15:02.782Z,5.60
2022-11-03T13:17:40.355Z,5.90
2022-11-03T13:20:19.573Z,3.90
2022-11-03T13:22:48.049Z,10.20
2022-11-03T13:25:18.719Z,5.50
2022-11-03T13:27:48.884Z,6.28
2022-11-03T13:30:17.269Z,5.88
2022-11-03T13:32:45.779Z,5.97
2022-11-03T13:35:14.322Z,7.43
2022-11-03T13:37:42.730Z,5.00
2022-11-03T13:40:29.402Z,6.20
2022-11-03T13:43:01.798Z,4.68
2022-11-03T13:45:31.253Z,5.70
2022-11-03T13:50:50.718Z,8.23
2022-11-03T13:56:10.231Z,8.35
2022-11-03T14:01:31.707Z,8.52
2022-11-03T14:06:49.234Z,10.40
2022-11-03T14:09:18.530Z,8.98
2022-11-03T14:12:13.686Z,6.85
2022-11-03T14:14:43.756Z,13.30
2022-11-03T14:17:12.223Z,8.52
2022-11-03T14:19:45.052Z,6.78
2022-11-03T14:22:15.737Z,9.70
2022-11-03T14:24:44.350Z,9.13
2022-11-03T14:27:13.029Z,20.17
2022-11-03T14:29:43.468Z,8.05
2022-11-03T14:32:11.863Z,7.60
2022-11-03T14:34:40.310Z,6.03
2022-11-03T14:37:09.218Z,7.07
2022-11-03T14:39:37.960Z,6.80
2022-11-03T14:42:06.395Z,9.25
2022-11-03T14:44:35.449Z,8.77
2022-11-03T14:47:05.778Z,8.05
2022-11-03T14:49:34.827Z,7.55
2022-11-03T14:52:03.639Z,11.82
2022-11-03T14:54:32.443Z,18.13
2022-11-03T14:57:00.750Z,10.32
2022-11-03T14:59:29.280Z,6.95
2022-11-03T15:02:22.836Z,5.90
2022-11-03T15:04:53.136Z,5.97
2022-11-03T15:07:26.684Z,7.05
2022-11-03T15:09:54.990Z,6.93
2022-11-03T15:12:23.291Z,6.55
2022-11-03T15:14:51.817Z,6.50
2022-11-03T15:19:00.988Z,7.28
2022-11-03T15:21:29.617Z,6.97
2022-11-03T15:26:46.401Z,9.18
2022-11-03T15:29:14.705Z,8.27
2022-11-03T15:31:47.529Z,6.72
2022-11-03T15:34:18.035Z,5.60
2022-11-03T15:36:46.365Z,8.55
2022-11-03T15:39:14.644Z,6.38
2022-11-03T15:41:43.003Z,9.55
2022-11-03T15:44:11.337Z,7.38
2022-11-03T15:46:39.672Z,6.53
2022-11-03T15:49:07.947Z,7.38
2022-11-03T15:51:37.588Z,5.63
2022-11-03T15:54:05.972Z,5.18
2022-11-03T15:56:34.464Z,4.70
2022-11-03T15:59:02.893Z,6.95
2022-11-03T16:01:33.267Z,6.10
2022-11-03T16:04:02.645Z,5.45
2022-11-03T16:09:20.938Z,6.25
2022-11-03T16:11:49.324Z,6.40
2022-11-03T16:14:17.673Z,13.00
2022-11-03T16:16:46.154Z,8.18
2022-11-03T16:19:14.426Z,8.13
2022-11-03T16:21:42.777Z,7.13
2022-11-03T16:24:12.282Z,6.38
2022-11-03T16:26:43.290Z,12.32
2022-11-03T16:29:11.641Z,9.80
2022-11-03T16:31:40.048Z,7.10
2022-11-03T16:34:08.340Z,9.68
2022-11-03T16:36:37.236Z,28.60
2022-11-03T16:39:05.693Z,10.73
2022-11-03T16:41:33.991Z,25.35
2022-11-03T16:44:03.726Z,22.10
2022-11-03T16:46:32.011Z,23.58
2022-11-03T16:51:33.615Z,12.55
2022-11-03T16:54:01.932Z,24.73
2022-11-03T16:56:30.224Z,21.67
2022-11-03T16:58:58.687Z,13.40
2022-11-03T17:01:28.473Z,11.32
2022-11-03T17:03:56.938Z,7.20
2022-11-03T17:06:25.346Z,14.88
2022-11-03T17:08:53.975Z,44.75
2022-11-03T17:11:36.562Z,12.55
2022-11-03T17:14:13.192Z,8.98
2022-11-03T17:16:45.407Z,10.02
2022-11-03T17:19:13.918Z,10.13
2022-11-03T17:21:42.408Z,15.13
2022-11-03T17:24:11.202Z,10.63
2022-11-03T17:26:51.193Z,12.00
2022-11-03T17:29:25.043Z,10.55
2022-11-03T17:31:56.173Z,9.77
2022-11-03T17:34:25.686Z,9.30
2022-11-03T17:36:54.662Z,10.43
2022-11-03T17:41:55.547Z,11.02
2022-11-03T17:44:23.864Z,11.05
2022-11-03T17:46:52.316Z,10.88
2022-11-03T17:49:22.143Z,10.45
2022-11-03T17:51:50.477Z,11.20
2022-11-03T17:54:18.812Z,11.65
2022-11-03T17:56:47.434Z,10.70
2022-11-03T17:59:45.978Z,9.80
2022-11-03T18:02:17.451Z,8.15
2022-11-03T18:04:47.794Z,9.07
2022-11-03T18:07:21.449Z,6.63
2022-11-03T18:09:50.314Z,8.73
2022-11-03T18:12:37.196Z,9.60
2022-11-03T18:15:07.069Z,7.40
2022-11-03T18:17:35.533Z,8.00
2022-11-03T18:20:05.564Z,7.82
2022-11-03T18:22:34.165Z,10.23
2022-11-03T18:25:02.701Z,11.75
2022-11-03T18:27:31.156Z,8.40
2022-11-03T18:29:59.475Z,7.90
2022-11-03T18:32:31.820Z,10.07
2022-11-03T18:35:05.899Z,9.75
2022-11-03T18:37:34.646Z,7.55
2022-11-03T18:40:04.517Z,8.55
2022-11-03T18:42:33.015Z,14.43
2022-11-03T18:45:03.083Z,10.98
2022-11-03T18:47:31.640Z,11.13
2022-11-03T18:49:59.932Z,8.70
2022-11-03T18:52:29.651Z,9.23
2022-11-03T18:54:58.035Z,10.15
2022-11-03T18:57:27.115Z,16.48
2022-11-03T18:59:55.529Z,13.80
2022-11-03T19:02:25.852Z,9.30
2022-11-03T19:04:54.534Z,9.52
2022-11-03T19:07:24.699Z,9.82
2022-11-03T19:09:54.434Z,9.43
2022-11-03T19:12:22.794Z,11.88
2022-11-03T19:14:52.099Z,13.60
2022-11-03T19:17:23.443Z,9.30
2022-11-03T19:19:52.875Z,11.45
2022-11-03T19:22:22.037Z,9.13
2022-11-03T19:24:50.354Z,11.57
2022-11-03T19:27:22.061Z,9.60
2022-11-03T19:29:50.554Z,12.63
2022-11-03T19:32:21.237Z,10.27
2022-11-03T19:34:51.376Z,12.02
2022-11-03T19:37:19.662Z,10.70
2022-11-03T19:39:48.585Z,11.93
2022-11-03T19:42:29.198Z,11.43
2022-11-03T19:44:59.285Z,12.23
2022-11-03T19:47:31.658Z,10.93
2022-11-03T19:50:02.202Z,13.02
2022-11-03T19:52:31.592Z,16.00
2022-11-03T19:55:02.540Z,12.73
2022-11-03T19:57:30.881Z,13.63
2022-11-03T20:00:00.660Z,17.55
2022-11-03T20:02:29.472Z,17.90
2022-11-03T20:04:57.910Z,17.67
2022-11-03T20:07:31.501Z,19.08
2022-11-03T20:10:01.237Z,25.73
2022-11-03T20:12:30.652Z,26.15
2022-11-03T20:15:00.510Z,26.13
2022-11-03T20:17:28.899Z,42.65
2022-11-03T20:19:57.313Z,23.98
2022-11-03T20:22:29.177Z,32.78
2022-11-03T20:24:58.935Z,23.48
2022-11-03T20:27:27.396Z,30.98
2022-11-03T20:29:55.963Z,48.65
2022-11-03T20:32:25.598Z,23.83
2022-11-03T20:34:53.949Z,19.33
2022-11-03T20:37:22.490Z,13.27
2022-11-03T20:39:50.958Z,13.02
2022-11-03T20:42:21.158Z,14.45
2022-11-03T20:44:49.795Z,12.90
2022-11-03T20:47:18.254Z,22.40
2022-11-03T20:49:48.364Z,17.15
2022-11-03T20:52:17.171Z,14.70
2022-11-03T20:54:45.590Z,21.63
2022-11-03T20:57:14.226Z,23.55
2022-11-03T20:59:42.778Z,24.45
2022-11-03T21:02:13.186Z,13.13
2022-11-03T21:04:43.123Z,20.17
2022-11-03T21:07:14.233Z,26.60
2022-11-03T21:09:42.644Z,27.38
2022-11-03T21:12:14.356Z,15.48
2022-11-03T21:14:57.297Z,18.92
2022-11-03T21:17:43.407Z,12.43
2022-11-03T21:20:12.417Z,22.90
2022-11-03T21:22:52.471Z,23.52
2022-11-03T21:25:23.141Z,22.70
2022-11-03T21:27:51.913Z,21.10
2022-11-03T21:30:20.722Z,21.88
2022-11-03T21:32:49.155Z,15.68
2022-11-03T21:35:19.009Z,12.50
2022-11-03T21:37:48.722Z,11.98
2022-11-03T21:40:17.551Z,9.40
2022-11-03T21:43:03.953Z,10.23
2022-11-03T21:45:32.530Z,10.68
2022-11-03T21:48:18.955Z,10.77
2022-11-03T21:50:47.656Z,8.32
2022-11-03T21:53:17.558Z,11.23
2022-11-03T21:55:48.270Z,16.05
2022-11-03T21:58:16.832Z,22.10
2022-11-03T22:00:47.146Z,16.63
2022-11-03T22:03:15.737Z,29.20
2022-11-03T22:05:44.300Z,13.35
2022-11-03T22:08:12.844Z,12.73
2022-11-03T22:10:42.554Z,11.00
2022-11-03T22:13:11.702Z,12.52
2022-11-03T22:15:57.754Z,11.93
2022-11-03T22:18:26.146Z,29.02
2022-11-03T22:21:12.085Z,12.15
2022-11-03T22:23:58.066Z,9.40
2022-11-03T22:26:45.515Z,10.55
2022-11-03T22:29:31.461Z,10.40
2022-11-03T22:31:59.777Z,12.90
2022-11-03T22:34:45.505Z,12.93
2022-11-03T22:37:13.811Z,13.30
2022-11-03T22:40:01.811Z,16.25
2022-11-03T22:43:00.785Z,16.02
2022-11-03T22:45:46.556Z,15.55
2022-11-03T22:48:14.864Z,11.95
2022-11-03T22:50:43.138Z,14.90
2022-11-03T22:53:29.016Z,14.88
2022-11-03T22:55:57.322Z,16.80
2022-11-03T22:58:30.613Z,15.60
2022-11-03T23:00:59.273Z,15.55
2022-11-03T23:03:27.579Z,16.83
2022-11-03T23:05:55.892Z,15.70
2022-11-03T23:08:24.387Z,18.65
2022-11-03T23:10:52.745Z,14.05
2022-11-03T23:13:21.233Z,11.30
2022-11-03T23:15:50.868Z,15.07
2022-11-03T23:18:37.047Z,11.88
2022-11-03T23:21:08.125Z,14.25
2022-11-03T23:23:54.619Z,13.75
2022-11-03T23:26:23.314Z,12.00
2022-11-03T23:28:51.643Z,13.40
2022-11-03T23:31:21.350Z,16.67
2022-11-03T23:33:49.737Z,11.45
2022-11-03T23:36:18.897Z,13.63
2022-11-03T23:38:47.230Z,13.35
2022-11-03T23:41:16.888Z,14.05
2022-11-03T23:43:45.829Z,14.63
2022-11-03T23:46:33.588Z,12.45
2022-11-03T23:49:03.438Z,10.80
2022-11-03T23:51:32.781Z,10.45
2022-11-03T23:54:01.450Z,13.93
2022-11-03T23:56:48.303Z,11.45
2022-11-03T23:59:17.509Z,12.10
